sensor_id;sensor_type;location;lat;lon;timestamp;pressure;altitude;pressure_sealevel;temperature;humidity
20160;BME280;50187;50.492;12.134;2023-08-31T00:02:23;96797.91;;;22.05;46.50
20160;BME280;50187;50.492;12.134;2023-08-31T00:04:52;96797.06;;;22.05;46.57
20160;BME280;50187;50.492;12.134;2023-08-31T00:07:21;96800.44;;;22.07;46.67
20160;BME280;50187;50.492;12.134;2023-08-31T00:09:48;96797.47;;;22.02;46.60
20160;BME280;50187;50.492;12.134;2023-08-31T00:12:14;96812.91;;;22.08;46.75
20160;BME280;50187;50.492;12.134;2023-08-31T00:14:41;96813.97;;;22.07;46.67
20160;BME280;50187;50.492;12.134;2023-08-31T00:17:08;96805.38;;;22.03;46.55
20160;BME280;50187;50.492;12.134;2023-08-31T00:19:35;96809.78;;;22.04;46.62
20160;BME280;50187;50.492;12.134;2023-08-31T00:22:01;96820.41;;;22.06;46.84
20160;BME280;50187;50.492;12.134;2023-08-31T00:24:28;96813.31;;;22.05;46.74
20160;BME280;50187;50.492;12.134;2023-08-31T00:26:58;96814.13;;;22.05;46.62
20160;BME280;50187;50.492;12.134;2023-08-31T00:29:25;96820.41;;;22.06;46.58
20160;BME280;50187;50.492;12.134;2023-08-31T00:31:51;96804.91;;;22.00;46.59
20160;BME280;50187;50.492;12.134;2023-08-31T00:34:20;96808.28;;;22.02;46.73
20160;BME280;50187;50.492;12.134;2023-08-31T00:36:46;96821.63;;;22.03;46.80
20160;BME280;50187;50.492;12.134;2023-08-31T00:39:13;96814.34;;;22.04;46.81
20160;BME280;50187;50.492;12.134;2023-08-31T00:41:41;96811.00;;;22.02;46.70
20160;BME280;50187;50.492;12.134;2023-08-31T00:44:08;96809.31;;;22.01;46.74
20160;BME280;50187;50.492;12.134;2023-08-31T00:46:35;96812.03;;;22.01;46.86
20160;BME280;50187;50.492;12.134;2023-08-31T00:49:03;96814.34;;;22.04;46.77
20160;BME280;50187;50.492;12.134;2023-08-31T00:51:33;96815.38;;;22.03;46.61
20160;BME280;50187;50.492;12.134;2023-08-31T00:53:59;96805.59;;;22.02;46.61
20160;BME280;50187;50.492;12.134;2023-08-31T00:56:26;96799.16;;;22.03;46.92
20160;BME280;50187;50.492;12.134;2023-08-31T00:58:53;96806.59;;;22.01;46.80
20160;BME280;50187;50.492;12.134;2023-08-31T01:01:39;96803.91;;;22.01;46.93
20160;BME280;50187;50.492;12.134;2023-08-31T01:04:36;96809.13;;;22.02;46.89
20160;BME280;50187;50.492;12.134;2023-08-31T01:07:22;96797.84;;;21.99;46.71
20160;BME280;50187;50.492;12.134;2023-08-31T01:13:03;96822.84;;;22.01;46.71
20160;BME280;50187;50.492;12.134;2023-08-31T01:15:44;96816.63;;;22.00;47.01
20160;BME280;50187;50.492;12.134;2023-08-31T01:18:16;96813.03;;;22.00;47.09
20160;BME280;50187;50.492;12.134;2023-08-31T01:20:55;96818.66;;;21.98;46.80
20160;BME280;50187;50.492;12.134;2023-08-31T01:23:30;96816.81;;;21.99;46.80
20160;BME280;50187;50.492;12.134;2023-08-31T01:26:00;96814.09;;;21.99;46.86
20160;BME280;50187;50.492;12.134;2023-08-31T01:28:27;96801.59;;;21.98;46.79
20160;BME280;50187;50.492;12.134;2023-08-31T01:30:53;96804.47;;;21.96;46.91
20160;BME280;50187;50.492;12.134;2023-08-31T01:33:20;96804.28;;;21.98;46.88
20160;BME280;50187;50.492;12.134;2023-08-31T01:35:50;96820.34;;;21.99;46.92
20160;BME280;50187;50.492;12.134;2023-08-31T01:38:25;96821.38;;;21.98;46.75
20160;BME280;50187;50.492;12.134;2023-08-31T01:41:00;96815.94;;;21.98;47.09
20160;BME280;50187;50.492;12.134;2023-08-31T01:43:31;96829.47;;;21.98;47.04
20160;BME280;50187;50.492;12.134;2023-08-31T01:46:00;96834.28;;;21.96;46.92
20160;BME280;50187;50.492;12.134;2023-08-31T01:48:26;96836.78;;;21.98;47.01
20160;BME280;50187;50.492;12.134;2023-08-31T01:50:53;96840.31;;;21.98;47.04
20160;BME280;50187;50.492;12.134;2023-08-31T01:53:20;96841.19;;;21.99;46.88
20160;BME280;50187;50.492;12.134;2023-08-31T01:55:46;96847.63;;;21.98;46.82
20160;BME280;50187;50.492;12.134;2023-08-31T01:58:13;96843.22;;;21.96;46.87
20160;BME280;50187;50.492;12.134;2023-08-31T02:00:40;96844.91;;;21.98;46.98
20160;BME280;50187;50.492;12.134;2023-08-31T02:03:06;96857.41;;;21.99;46.84
20160;BME280;50187;50.492;12.134;2023-08-31T02:05:34;96862.84;;;21.99;47.12
20160;BME280;50187;50.492;12.134;2023-08-31T02:08:01;96857.41;;;21.99;46.97
20160;BME280;50187;50.492;12.134;2023-08-31T02:10:27;96861.78;;;22.00;46.76
20160;BME280;50187;50.492;12.134;2023-08-31T02:12:56;96863.03;;;21.97;46.82
20160;BME280;50187;50.492;12.134;2023-08-31T02:15:23;96860.97;;;21.99;47.16
20160;BME280;50187;50.492;12.134;2023-08-31T02:17:49;96859.28;;;21.98;46.86
20160;BME280;50187;50.492;12.134;2023-08-31T02:20:16;96861.16;;;21.98;46.85
20160;BME280;50187;50.492;12.134;2023-08-31T02:22:43;96871.97;;;21.98;46.82
20160;BME280;50187;50.492;12.134;2023-08-31T02:25:09;96872.81;;;21.98;46.98
20160;BME280;50187;50.492;12.134;2023-08-31T02:27:36;96873.00;;;21.96;46.86
20160;BME280;50187;50.492;12.134;2023-08-31T02:30:03;96874.03;;;21.95;47.10
20160;BME280;50187;50.492;12.134;2023-08-31T02:32:33;96875.53;;;21.98;47.08
20160;BME280;50187;50.492;12.134;2023-08-31T02:35:00;96872.38;;;21.94;47.03
20160;BME280;50187;50.492;12.134;2023-08-31T02:37:26;96881.78;;;21.99;47.03
20160;BME280;50187;50.492;12.134;2023-08-31T02:39:53;96874.22;;;21.94;46.86
20160;BME280;50187;50.492;12.134;2023-08-31T02:42:19;96883.84;;;21.96;47.11
20160;BME280;50187;50.492;12.134;2023-08-31T02:44:46;96878.81;;;21.93;46.93
20160;BME280;50187;50.492;12.134;2023-08-31T02:47:13;96884.84;;;21.95;47.19
20160;BME280;50187;50.492;12.134;2023-08-31T02:49:39;96882.16;;;21.95;47.18
20160;BME280;50187;50.492;12.134;2023-08-31T02:52:06;96878.63;;;21.95;46.98
20160;BME280;50187;50.492;12.134;2023-08-31T02:54:32;96873.41;;;21.93;46.90
20160;BME280;50187;50.492;12.134;2023-08-31T02:56:59;96881.31;;;21.95;46.89
20160;BME280;50187;50.492;12.134;2023-08-31T02:59:26;96871.31;;;21.95;47.19
20160;BME280;50187;50.492;12.134;2023-08-31T03:01:54;96881.50;;;21.93;47.11
20160;BME280;50187;50.492;12.134;2023-08-31T03:04:21;96872.38;;;21.94;47.23
20160;BME280;50187;50.492;12.134;2023-08-31T03:06:48;96876.94;;;21.94;47.18
20160;BME280;50187;50.492;12.134;2023-08-31T03:09:15;96875.09;;;21.94;47.04
20160;BME280;50187;50.492;12.134;2023-08-31T03:11:42;96870.69;;;21.93;47.21
20160;BME280;50187;50.492;12.134;2023-08-31T03:14:09;96872.38;;;21.94;47.00
20160;BME280;50187;50.492;12.134;2023-08-31T03:16:36;96873.41;;;21.93;47.14
20160;BME280;50187;50.492;12.134;2023-08-31T03:19:03;96879.84;;;21.92;47.19
20160;BME280;50187;50.492;12.134;2023-08-31T03:21:30;96879.84;;;21.92;47.13
20160;BME280;50187;50.492;12.134;2023-08-31T03:23:59;96885.25;;;21.92;47.21
20160;BME280;50187;50.492;12.134;2023-08-31T03:26:26;96885.25;;;21.92;47.38
20160;BME280;50187;50.492;12.134;2023-08-31T03:28:52;96891.72;;;21.91;47.08
20160;BME280;50187;50.492;12.134;2023-08-31T03:31:19;96896.06;;;21.92;46.94
20160;BME280;50187;50.492;12.134;2023-08-31T03:33:46;96892.53;;;21.92;47.23
20160;BME280;50187;50.492;12.134;2023-08-31T03:36:12;96892.53;;;21.92;47.15
20160;BME280;50187;50.492;12.134;2023-08-31T03:38:39;96904.59;;;21.89;47.24
20160;BME280;50187;50.492;12.134;2023-08-31T03:41:06;96898.16;;;21.90;47.22
20160;BME280;50187;50.492;12.134;2023-08-31T03:43:33;96897.47;;;21.88;47.08
20160;BME280;50187;50.492;12.134;2023-08-31T03:46:00;96898.25;;;21.82;47.40
20160;BME280;50187;50.492;12.134;2023-08-31T03:48:27;96899.38;;;21.88;47.32
20160;BME280;50187;50.492;12.134;2023-08-31T03:50:54;96908.31;;;21.88;47.16
20160;BME280;50187;50.492;12.134;2023-08-31T03:53:21;96917.28;;;21.89;47.20
20160;BME280;50187;50.492;12.134;2023-08-31T03:55:51;96918.13;;;21.89;47.02
20160;BME280;50187;50.492;12.134;2023-08-31T03:58:18;96912.72;;;21.89;47.08
20160;BME280;50187;50.492;12.134;2023-08-31T04:00:50;96916.44;;;21.88;47.36
20160;BME280;50187;50.492;12.134;2023-08-31T04:03:18;96918.50;;;21.86;47.20
20160;BME280;50187;50.492;12.134;2023-08-31T04:05:46;96916.44;;;21.88;47.05
20160;BME280;50187;50.492;12.134;2023-08-31T04:08:13;96909.56;;;21.86;47.18
20160;BME280;50187;50.492;12.134;2023-08-31T04:10:39;96916.81;;;21.85;47.27
20160;BME280;50187;50.492;12.134;2023-08-31T04:13:06;96918.03;;;21.83;47.13
20160;BME280;50187;50.492;12.134;2023-08-31T04:15:32;96926.63;;;21.86;47.35
20160;BME280;50187;50.492;12.134;2023-08-31T04:18:00;96924.75;;;21.87;47.12
20160;BME280;50187;50.492;12.134;2023-08-31T04:20:27;96932.44;;;21.83;47.26
20160;BME280;50187;50.492;12.134;2023-08-31T04:22:53;96932.03;;;21.86;47.35
20160;BME280;50187;50.492;12.134;2023-08-31T04:25:20;96934.75;;;21.86;47.08
20160;BME280;50187;50.492;12.134;2023-08-31T04:27:47;96935.13;;;21.83;47.13
20160;BME280;50187;50.492;12.134;2023-08-31T04:30:13;96933.94;;;21.86;47.28
20160;BME280;50187;50.492;12.134;2023-08-31T04:32:40;96934.75;;;21.86;47.27
20160;BME280;50187;50.492;12.134;2023-08-31T04:35:07;96946.41;;;21.87;47.08
20160;BME280;50187;50.492;12.134;2023-08-31T04:37:34;96949.13;;;21.87;47.06
20160;BME280;50187;50.492;12.134;2023-08-31T04:40:01;96953.03;;;21.84;47.19
20160;BME280;50187;50.492;12.134;2023-08-31T04:42:27;96960.13;;;21.85;47.34
20160;BME280;50187;50.492;12.134;2023-08-31T04:44:54;96962.84;;;21.85;47.30
20160;BME280;50187;50.492;12.134;2023-08-31T04:47:21;96965.56;;;21.85;47.20
20160;BME280;50187;50.492;12.134;2023-08-31T04:49:47;96956.13;;;21.81;47.09
20160;BME280;50187;50.492;12.134;2023-08-31T04:52:14;96972.19;;;21.83;47.11
20160;BME280;50187;50.492;12.134;2023-08-31T04:54:40;96966.56;;;21.84;47.07
20160;BME280;50187;50.492;12.134;2023-08-31T04:57:07;96982.19;;;21.82;47.38
20160;BME280;50187;50.492;12.134;2023-08-31T04:59:34;96974.53;;;21.86;47.07
20160;BME280;50187;50.492;12.134;2023-08-31T05:02:00;96977.41;;;21.84;47.27
20160;BME280;50187;50.492;12.134;2023-08-31T05:04:27;96979.28;;;21.84;47.41
20160;BME280;50187;50.492;12.134;2023-08-31T05:06:55;96989.28;;;21.83;47.07
20160;BME280;50187;50.492;12.134;2023-08-31T05:09:24;96976.56;;;21.84;47.10
20160;BME280;50187;50.492;12.134;2023-08-31T05:11:50;96988.44;;;21.83;47.28
20160;BME280;50187;50.492;12.134;2023-08-31T05:14:17;96989.28;;;21.83;47.30
20160;BME280;50187;50.492;12.134;2023-08-31T05:16:44;96995.09;;;21.80;47.33
20160;BME280;50187;50.492;12.134;2023-08-31T05:19:11;97003.84;;;21.82;47.39
20160;BME280;50187;50.492;12.134;2023-08-31T05:21:37;97010.09;;;21.83;47.09
20160;BME280;50187;50.492;12.134;2023-08-31T05:24:05;97015.31;;;21.84;47.35
20160;BME280;50187;50.492;12.134;2023-08-31T05:26:31;97016.53;;;21.82;47.17
20160;BME280;50187;50.492;12.134;2023-08-31T05:28:58;97030.09;;;21.82;47.43
20160;BME280;50187;50.492;12.134;2023-08-31T05:31:25;97023.63;;;21.83;47.10
20160;BME280;50187;50.492;12.134;2023-08-31T05:33:51;97033.25;;;21.85;47.18
20160;BME280;50187;50.492;12.134;2023-08-31T05:36:18;97036.13;;;21.84;47.01
20160;BME280;50187;50.492;12.134;2023-08-31T05:38:45;97037.16;;;21.83;47.39
20160;BME280;50187;50.492;12.134;2023-08-31T05:41:12;97033.81;;;21.81;47.39
20160;BME280;50187;50.492;12.134;2023-08-31T05:43:38;97043.31;;;21.76;47.20
20160;BME280;50187;50.492;12.134;2023-08-31T05:46:08;97045.22;;;21.76;47.27
20160;BME280;50187;50.492;12.134;2023-08-31T05:48:35;97053.31;;;21.76;47.30
20160;BME280;50187;50.492;12.134;2023-08-31T05:51:03;97049.13;;;21.73;47.34
20160;BME280;50187;50.492;12.134;2023-08-31T05:53:30;97054.34;;;21.75;47.24
20160;BME280;50187;50.492;12.134;2023-08-31T05:55:58;97049.94;;;21.74;47.11
20160;BME280;50187;50.492;12.134;2023-08-31T05:58:35;97049.94;;;21.74;47.13
20160;BME280;50187;50.492;12.134;2023-08-31T06:01:03;97052.66;;;21.74;47.19
20160;BME280;50187;50.492;12.134;2023-08-31T06:03:30;97051.16;;;21.71;47.09
20160;BME280;50187;50.492;12.134;2023-08-31T06:05:58;97052.00;;;21.72;47.21
20160;BME280;50187;50.492;12.134;2023-08-31T06:08:25;97045.75;;;21.71;47.29
20160;BME280;50187;50.492;12.134;2023-08-31T06:10:52;97041.06;;;21.65;47.09
20160;BME280;50187;50.492;12.134;2023-08-31T06:13:18;97040.69;;;21.68;46.96
20160;BME280;50187;50.492;12.134;2023-08-31T06:15:45;97043.69;;;21.73;47.24
20160;BME280;50187;50.492;12.134;2023-08-31T06:18:12;97046.22;;;21.75;47.21
20160;BME280;50187;50.492;12.134;2023-08-31T06:20:39;97046.22;;;21.75;46.85
20160;BME280;50187;50.492;12.134;2023-08-31T06:23:05;97049.75;;;21.75;47.01
20160;BME280;50187;50.492;12.134;2023-08-31T06:25:32;97046.41;;;21.73;46.90
20160;BME280;50187;50.492;12.134;2023-08-31T06:27:59;97052.94;;;21.79;47.01
20160;BME280;50187;50.492;12.134;2023-08-31T06:30:25;97052.75;;;21.81;46.70
20160;BME280;50187;50.492;12.134;2023-08-31T06:32:52;97046.88;;;21.77;46.73
20160;BME280;50187;50.492;12.134;2023-08-31T06:35:19;97049.88;;;21.82;46.50
20160;BME280;50187;50.492;12.134;2023-08-31T06:37:47;97062.19;;;21.85;46.72
20160;BME280;50187;50.492;12.134;2023-08-31T06:40:14;97058.47;;;21.86;46.42
20160;BME280;50187;50.492;12.134;2023-08-31T06:42:40;97060.13;;;21.87;46.25
20160;BME280;50187;50.492;12.134;2023-08-31T06:45:08;97063.50;;;21.89;46.34
20160;BME280;50187;50.492;12.134;2023-08-31T06:47:34;97062.31;;;21.91;46.04
20160;BME280;50187;50.492;12.134;2023-08-31T06:50:01;97062.75;;;21.95;46.20
20160;BME280;50187;50.492;12.134;2023-08-31T06:52:30;97069.84;;;21.96;46.09
20160;BME280;50187;50.492;12.134;2023-08-31T06:54:58;97072.00;;;22.01;46.03
20160;BME280;50187;50.492;12.134;2023-08-31T06:57:26;97080.78;;;22.03;45.90
20160;BME280;50187;50.492;12.134;2023-08-31T06:59:53;97082.81;;;22.01;45.71
20160;BME280;50187;50.492;12.134;2023-08-31T07:02:20;97090.66;;;21.95;45.68
20160;BME280;50187;50.492;12.134;2023-08-31T07:04:49;97085.72;;;21.99;45.83
20160;BME280;50187;50.492;12.134;2023-08-31T07:07:16;97088.63;;;21.98;45.86
20160;BME280;50187;50.492;12.134;2023-08-31T07:09:43;97083.59;;;21.94;45.65
20160;BME280;50187;50.492;12.134;2023-08-31T07:12:10;97090.84;;;21.94;45.79
20160;BME280;50187;50.492;12.134;2023-08-31T07:14:37;97087.19;;;21.87;45.78
20160;BME280;50187;50.492;12.134;2023-08-31T07:17:04;97093.75;;;21.92;45.83
20160;BME280;50187;50.492;12.134;2023-08-31T07:19:31;97100.22;;;21.91;45.64
20160;BME280;50187;50.492;12.134;2023-08-31T07:21:58;97107.47;;;21.91;45.48
20160;BME280;50187;50.492;12.134;2023-08-31T07:24:25;97101.41;;;21.89;45.45
20160;BME280;50187;50.492;12.134;2023-08-31T07:26:52;97105.97;;;21.88;45.39
20160;BME280;50187;50.492;12.134;2023-08-31T07:29:19;97101.13;;;21.84;45.28
20160;BME280;50187;50.492;12.134;2023-08-31T07:31:45;97104.50;;;21.86;45.25
20160;BME280;50187;50.492;12.134;2023-08-31T07:34:13;97100.28;;;21.83;45.47
20160;BME280;50187;50.492;12.134;2023-08-31T07:36:39;97112.63;;;21.86;45.25
20160;BME280;50187;50.492;12.134;2023-08-31T07:39:06;97111.75;;;21.85;45.35
20160;BME280;50187;50.492;12.134;2023-08-31T07:41:33;97108.41;;;21.83;45.54
20160;BME280;50187;50.492;12.134;2023-08-31T07:44:00;97118.19;;;21.84;45.40
20160;BME280;50187;50.492;12.134;2023-08-31T07:46:30;97121.19;;;21.89;45.49
20160;BME280;50187;50.492;12.134;2023-08-31T07:48:57;97122.31;;;21.95;45.46
20160;BME280;50187;50.492;12.134;2023-08-31T07:51:24;97123.63;;;21.99;45.25
20160;BME280;50187;50.492;12.134;2023-08-31T07:53:52;97125.50;;;21.99;45.41
20160;BME280;50187;50.492;12.134;2023-08-31T07:56:19;97122.25;;;22.03;45.18
20160;BME280;50187;50.492;12.134;2023-08-31T07:58:45;97125.59;;;22.05;45.04
20160;BME280;50187;50.492;12.134;2023-08-31T08:01:12;97131.88;;;22.06;44.87
20160;BME280;50187;50.492;12.134;2023-08-31T08:03:39;97133.25;;;22.02;44.87
20160;BME280;50187;50.492;12.134;2023-08-31T08:06:06;97133.91;;;22.04;44.93
20160;BME280;50187;50.492;12.134;2023-08-31T08:08:32;97129.34;;;22.04;45.08
20160;BME280;50187;50.492;12.134;2023-08-31T08:10:59;97136.28;;;22.07;45.06
20160;BME280;50187;50.492;12.134;2023-08-31T08:13:26;97135.22;;;22.08;44.92
20160;BME280;50187;50.492;12.134;2023-08-31T08:15:53;97129.81;;;22.08;44.95
20160;BME280;50187;50.492;12.134;2023-08-31T08:18:19;97145.22;;;22.07;44.71
20160;BME280;50187;50.492;12.134;2023-08-31T08:20:52;97143.16;;;22.09;44.77
20160;BME280;50187;50.492;12.134;2023-08-31T08:23:19;97149.25;;;22.11;44.72
20160;BME280;50187;50.492;12.134;2023-08-31T08:25:48;97144.66;;;22.12;44.69
20160;BME280;50187;50.492;12.134;2023-08-31T08:28:15;97144.66;;;22.12;44.67
20160;BME280;50187;50.492;12.134;2023-08-31T08:30:41;97152.22;;;22.17;44.50
20160;BME280;50187;50.492;12.134;2023-08-31T08:33:08;97145.59;;;22.19;44.28
20160;BME280;50187;50.492;12.134;2023-08-31T08:35:37;97156.72;;;22.24;44.40
20160;BME280;50187;50.492;12.134;2023-08-31T08:38:04;97147.78;;;22.24;44.29
20160;BME280;50187;50.492;12.134;2023-08-31T08:40:31;97153.81;;;22.26;44.45
20160;BME280;50187;50.492;12.134;2023-08-31T08:43:01;97140.47;;;22.24;44.19
20160;BME280;50187;50.492;12.134;2023-08-31T08:45:36;97143.28;;;22.31;44.27
20160;BME280;50187;50.492;12.134;2023-08-31T08:48:05;97144.63;;;22.35;44.04
20160;BME280;50187;50.492;12.134;2023-08-31T08:50:33;97145.06;;;22.39;43.89
20160;BME280;50187;50.492;12.134;2023-08-31T08:53:04;97143.03;;;22.41;43.83
20160;BME280;50187;50.492;12.134;2023-08-31T08:55:31;97150.31;;;22.40;43.85
20160;BME280;50187;50.492;12.134;2023-08-31T08:57:59;97151.34;;;22.39;44.02
20160;BME280;50187;50.492;12.134;2023-08-31T09:00:30;97159.63;;;22.38;43.80
20160;BME280;50187;50.492;12.134;2023-08-31T09:02:58;97163.41;;;22.37;43.80
20160;BME280;50187;50.492;12.134;2023-08-31T09:05:24;97153.59;;;22.36;44.00
20160;BME280;50187;50.492;12.134;2023-08-31T09:08:04;97163.78;;;22.34;43.76
20160;BME280;50187;50.492;12.134;2023-08-31T09:10:34;97158.50;;;22.32;43.68
20160;BME280;50187;50.492;12.134;2023-08-31T09:13:05;97156.81;;;22.31;43.91
20160;BME280;50187;50.492;12.134;2023-08-31T09:15:43;97161.38;;;22.30;43.85
20160;BME280;50187;50.492;12.134;2023-08-31T09:18:30;97166.16;;;22.28;43.55
20160;BME280;50187;50.492;12.134;2023-08-31T09:21:00;97159.06;;;22.27;43.74
20160;BME280;50187;50.492;12.134;2023-08-31T09:23:27;97158.22;;;22.27;43.61
20160;BME280;50187;50.492;12.134;2023-08-31T09:25:55;97166.53;;;22.25;43.58
20160;BME280;50187;50.492;12.134;2023-08-31T09:28:24;97159.91;;;22.28;43.67
20160;BME280;50187;50.492;12.134;2023-08-31T09:31:04;97159.91;;;22.28;43.70
20160;BME280;50187;50.492;12.134;2023-08-31T09:33:31;97159.53;;;22.31;43.52
20160;BME280;50187;50.492;12.134;2023-08-31T09:35:59;97153.94;;;22.33;43.59
20160;BME280;50187;50.492;12.134;2023-08-31T09:38:30;97158.34;;;22.34;43.38
20160;BME280;50187;50.492;12.134;2023-08-31T09:41:06;97156.34;;;22.27;43.62
20160;BME280;50187;50.492;12.134;2023-08-31T09:43:33;97145.22;;;22.22;43.88
20160;BME280;50187;50.492;12.134;2023-08-31T09:46:01;97157.00;;;22.29;43.72
20160;BME280;50187;50.492;12.134;2023-08-31T09:48:29;97163.25;;;22.30;43.59
20160;BME280;50187;50.492;12.134;2023-08-31T09:50:56;97160.38;;;22.32;43.58
20160;BME280;50187;50.492;12.134;2023-08-31T09:53:24;97164.94;;;22.31;43.70
20160;BME280;50187;50.492;12.134;2023-08-31T09:55:56;97159.34;;;22.33;43.57
20160;BME280;50187;50.492;12.134;2023-08-31T09:58:23;97150.09;;;22.27;43.43
20160;BME280;50187;50.492;12.134;2023-08-31T10:00:51;97161.91;;;22.34;43.80
20160;BME280;50187;50.492;12.134;2023-08-31T10:03:20;97164.03;;;22.39;43.56
20160;BME280;50187;50.492;12.134;2023-08-31T10:05:48;97163.03;;;22.40;43.54
20160;BME280;50187;50.492;12.134;2023-08-31T10:08:16;97155.53;;;22.42;43.24
20160;BME280;50187;50.492;12.134;2023-08-31T10:10:44;97156.59;;;22.41;43.54
20160;BME280;50187;50.492;12.134;2023-08-31T10:13:11;97162.19;;;22.39;43.41
20160;BME280;50187;50.492;12.134;2023-08-31T10:15:39;97165.44;;;22.35;43.51
20160;BME280;50187;50.492;12.134;2023-08-31T10:18:07;97168.16;;;22.35;43.55
20160;BME280;50187;50.492;12.134;2023-08-31T10:20:34;97168.34;;;22.33;43.83
20160;BME280;50187;50.492;12.134;2023-08-31T10:23:05;97178.81;;;22.36;43.50
20160;BME280;50187;50.492;12.134;2023-08-31T10:28:21;97187.31;;;22.48;43.57
20160;BME280;50187;50.492;12.134;2023-08-31T10:31:03;97190.28;;;22.53;43.44
20160;BME280;50187;50.492;12.134;2023-08-31T10:33:41;97183.28;;;22.59;43.30
20160;BME280;50187;50.492;12.134;2023-08-31T10:36:12;97185.44;;;22.63;43.03
20160;BME280;50187;50.492;12.134;2023-08-31T10:38:38;97177.97;;;22.66;43.05
20160;BME280;50187;50.492;12.134;2023-08-31T10:43:55;97181.03;;;22.77;42.87
20160;BME280;50187;50.492;12.134;2023-08-31T10:46:44;97164.94;;;22.76;42.90
20160;BME280;50187;50.492;12.134;2023-08-31T10:51:42;97161.22;;;22.77;42.71
20160;BME280;50187;50.492;12.134;2023-08-31T10:59:25;97165.13;;;22.74;42.98
20160;BME280;50187;50.492;12.134;2023-08-31T11:01:52;97159.50;;;22.76;42.90
20160;BME280;50187;50.492;12.134;2023-08-31T11:04:27;97172.72;;;22.79;42.67
20160;BME280;50187;50.492;12.134;2023-08-31T11:07:16;97170.00;;;22.79;42.82
20160;BME280;50187;50.492;12.134;2023-08-31T11:09:44;97172.06;;;22.77;42.64
20160;BME280;50187;50.492;12.134;2023-08-31T11:12:11;97176.47;;;22.78;42.88
20160;BME280;50187;50.492;12.134;2023-08-31T11:14:39;97159.72;;;22.74;42.91
20160;BME280;50187;50.492;12.134;2023-08-31T11:17:06;97174.75;;;22.77;42.93
20160;BME280;50187;50.492;12.134;2023-08-31T11:19:34;97177.47;;;22.77;42.65
20160;BME280;50187;50.492;12.134;2023-08-31T11:22:03;97167.00;;;22.74;42.81
20160;BME280;50187;50.492;12.134;2023-08-31T11:24:31;97163.91;;;22.77;42.67
20160;BME280;50187;50.492;12.134;2023-08-31T11:26:58;97163.91;;;22.77;42.76
20160;BME280;50187;50.492;12.134;2023-08-31T11:29:25;97159.34;;;22.77;42.93
20160;BME280;50187;50.492;12.134;2023-08-31T11:31:52;97157.28;;;22.79;42.70
20160;BME280;50187;50.492;12.134;2023-08-31T11:34:19;97168.75;;;22.81;42.65
20160;BME280;50187;50.492;12.134;2023-08-31T11:36:46;97166.91;;;22.82;42.78
20160;BME280;50187;50.492;12.134;2023-08-31T11:39:13;97167.94;;;22.81;42.77
20160;BME280;50187;50.492;12.134;2023-08-31T11:41:41;97159.81;;;22.81;42.77
20160;BME280;50187;50.492;12.134;2023-08-31T11:44:09;97153.94;;;22.77;42.80
20160;BME280;50187;50.492;12.134;2023-08-31T11:46:38;97158.50;;;22.77;42.84
20160;BME280;50187;50.492;12.134;2023-08-31T11:49:06;97147.66;;;22.77;42.66
20160;BME280;50187;50.492;12.134;2023-08-31T11:51:34;97155.41;;;22.80;42.91
20160;BME280;50187;50.492;12.134;2023-08-31T11:54:01;97155.41;;;22.80;42.59
20160;BME280;50187;50.492;12.134;2023-08-31T11:56:49;97151.47;;;22.83;42.64
20160;BME280;50187;50.492;12.134;2023-08-31T11:59:18;97150.16;;;22.78;42.54
20160;BME280;50187;50.492;12.134;2023-08-31T12:01:47;97140.19;;;22.79;42.78
20160;BME280;50187;50.492;12.134;2023-08-31T12:04:16;97138.09;;;22.81;42.61
20160;BME280;50187;50.492;12.134;2023-08-31T12:06:47;97144.75;;;22.78;42.65
20160;BME280;50187;50.492;12.134;2023-08-31T12:09:17;97141.66;;;22.81;42.56
20160;BME280;50187;50.492;12.134;2023-08-31T12:11:50;97154.38;;;22.81;42.48
20160;BME280;50187;50.492;12.134;2023-08-31T12:14:22;97139.78;;;22.82;42.73
20160;BME280;50187;50.492;12.134;2023-08-31T12:16:50;97136.88;;;22.84;42.74
20160;BME280;50187;50.492;12.134;2023-08-31T12:19:17;97161.28;;;22.84;42.72
20160;BME280;50187;50.492;12.134;2023-08-31T12:21:45;97152.34;;;22.83;42.64
20160;BME280;50187;50.492;12.134;2023-08-31T12:24:12;97150.66;;;22.82;42.53
20160;BME280;50187;50.492;12.134;2023-08-31T12:26:40;97151.22;;;22.77;42.60
20160;BME280;50187;50.492;12.134;2023-08-31T12:29:06;97154.28;;;22.74;42.60
20160;BME280;50187;50.492;12.134;2023-08-31T12:31:33;97157.84;;;22.75;42.86
20160;BME280;50187;50.492;12.134;2023-08-31T12:34:00;97152.91;;;22.63;42.75
20160;BME280;50187;50.492;12.134;2023-08-31T12:36:31;97168.22;;;22.71;42.64
20160;BME280;50187;50.492;12.134;2023-08-31T12:38:58;97157.75;;;22.68;42.75
20160;BME280;50187;50.492;12.134;2023-08-31T12:41:28;97157.56;;;22.70;42.70
20160;BME280;50187;50.492;12.134;2023-08-31T12:43:55;97168.41;;;22.70;42.72
20160;BME280;50187;50.492;12.134;2023-08-31T12:46:22;97159.25;;;22.71;42.71
20160;BME280;50187;50.492;12.134;2023-08-31T12:48:48;97162.81;;;22.71;42.76
20160;BME280;50187;50.492;12.134;2023-08-31T12:51:19;97166.72;;;22.69;42.50
20160;BME280;50187;50.492;12.134;2023-08-31T12:53:45;97165.72;;;22.70;42.54
20160;BME280;50187;50.492;12.134;2023-08-31T12:56:14;97171.81;;;22.72;42.44
20160;BME280;50187;50.492;12.134;2023-08-31T12:58:52;97162.81;;;22.71;42.57
20160;BME280;50187;50.492;12.134;2023-08-31T13:01:20;97168.22;;;22.71;42.52
20160;BME280;50187;50.492;12.134;2023-08-31T13:03:47;97166.53;;;22.70;42.37
20160;BME280;50187;50.492;12.134;2023-08-31T13:06:15;97169.09;;;22.72;42.63
20160;BME280;50187;50.492;12.134;2023-08-31T13:08:44;97167.22;;;22.72;42.46
20160;BME280;50187;50.492;12.134;2023-08-31T13:11:12;97166.53;;;22.70;42.44
20160;BME280;50187;50.492;12.134;2023-08-31T13:13:39;97163.00;;;22.70;42.54